createdAt,value
2019-04-24T00:08:08.525Z,42.00
2019-04-24T00:11:08.057Z,43.30
2019-04-24T00:13:20.974Z,43.83
2019-04-24T00:16:08.694Z,46.20
2019-04-24T00:18:41.722Z,43.57
2019-04-24T00:21:03.376Z,42.33
2019-04-24T00:23:27.296Z,45.70
2019-04-24T00:25:53.930Z,43.57
2019-04-24T00:30:58.792Z,44.27
2019-04-24T00:36:29.371Z,43.40
2019-04-24T00:38:48.343Z,42.40
2019-04-24T00:46:19.678Z,43.90
2019-04-24T00:48:38.842Z,42.00
2019-04-24T00:51:17.738Z,43.70
2019-04-24T00:56:12.056Z,44.97
2019-04-24T00:58:34.075Z,48.17
2019-04-24T01:01:38.216Z,45.47
2019-04-24T01:04:28.230Z,44.10
2019-04-24T01:07:03.506Z,45.00
2019-04-24T01:09:25.068Z,45.07
2019-04-24T01:11:51.782Z,45.13
2019-04-24T01:16:46.641Z,45.83
2019-04-24T01:19:15.541Z,47.70
2019-04-24T01:22:01.134Z,45.80
2019-04-24T01:24:28.487Z,46.63
2019-04-24T01:26:43.960Z,46.10
2019-04-24T01:37:45.693Z,47.57
2019-04-24T01:40:09.271Z,47.10
2019-04-24T01:47:51.457Z,45.20
2019-04-24T01:55:08.724Z,45.17
2019-04-24T01:57:43.191Z,45.07
2019-04-24T02:00:18.942Z,45.00
2019-04-24T02:02:44.209Z,45.67
2019-04-24T02:05:09.679Z,48.70
2019-04-24T02:15:32.423Z,45.20
2019-04-24T02:18:11.533Z,46.70
2019-04-24T02:28:17.199Z,48.00
2019-04-24T02:30:52.171Z,45.37
2019-04-24T02:34:14.278Z,46.37
2019-04-24T02:38:56.220Z,45.17
2019-04-24T02:43:51.101Z,44.70
2019-04-24T02:46:14.352Z,46.90
2019-04-24T02:53:40.243Z,50.57
2019-04-24T02:56:26.877Z,44.90
2019-04-24T03:01:39.191Z,45.90
2019-04-24T03:06:27.796Z,45.97
2019-04-24T03:11:16.386Z,44.47
2019-04-24T03:14:09.084Z,44.53
2019-04-24T03:17:19.929Z,45.50
2019-04-24T03:24:35.468Z,44.73
2019-04-24T03:37:32.250Z,46.03
2019-04-24T03:47:18.132Z,45.90
2019-04-24T03:57:53.902Z,44.10
2019-04-24T04:05:29.263Z,44.50
2019-04-24T04:08:15.871Z,44.60
2019-04-24T04:29:02.789Z,43.50
2019-04-24T04:34:22.803Z,46.07
2019-04-24T04:36:58.100Z,44.47
2019-04-24T04:39:05.942Z,46.63
2019-04-24T04:42:24.066Z,47.23
2019-04-24T04:47:35.303Z,47.80
2019-04-24T05:01:20.007Z,47.90
2019-04-24T05:03:50.455Z,48.70
2019-04-24T05:11:38.067Z,47.03
2019-04-24T05:14:17.839Z,47.20
2019-04-24T05:16:51.029Z,45.00
2019-04-24T05:19:14.489Z,45.33
2019-04-24T05:21:34.999Z,42.73
2019-04-24T05:37:17.828Z,43.90
2019-04-24T05:39:54.564Z,42.23
2019-04-24T05:42:39.411Z,43.20
2019-04-24T05:44:46.506Z,43.77
2019-04-24T05:47:40.847Z,41.50
2019-04-24T05:50:11.717Z,40.27
2019-04-24T05:52:47.668Z,43.93
2019-04-24T05:55:42.384Z,40.87
2019-04-24T06:00:37.302Z,42.00
2019-04-24T06:02:58.561Z,40.87
2019-04-24T06:05:34.841Z,40.10
2019-04-24T06:08:16.207Z,41.87
2019-04-24T06:16:28.180Z,41.50
2019-04-24T06:19:20.884Z,39.70
2019-04-24T06:21:40.261Z,40.20
2019-04-24T06:26:45.464Z,41.30
2019-04-24T06:32:04.978Z,42.50
2019-04-24T06:34:10.416Z,44.37
2019-04-24T06:42:51.589Z,41.17
2019-04-24T06:45:19.053Z,41.00
2019-04-24T06:50:15.410Z,41.80
2019-04-24T06:52:46.066Z,42.10
2019-04-24T06:55:03.500Z,42.70
2019-04-24T06:57:42.657Z,40.10
2019-04-24T07:00:31.989Z,39.90
2019-04-24T07:03:14.399Z,40.93
2019-04-24T07:09:18.211Z,41.47
2019-04-24T07:11:53.811Z,42.73
2019-04-24T07:14:26.922Z,41.87
2019-04-24T07:17:20.076Z,43.13
2019-04-24T07:19:44.074Z,43.90
2019-04-24T07:22:06.339Z,42.17
2019-04-24T07:27:29.387Z,41.40
2019-04-24T07:29:54.786Z,39.47
2019-04-24T07:32:35.306Z,41.83
2019-04-24T07:40:16.941Z,42.40
2019-04-24T07:42:59.219Z,41.33
2019-04-24T07:45:31.012Z,39.20
2019-04-24T07:47:44.671Z,42.73
2019-04-24T07:50:31.250Z,43.33
2019-04-24T07:55:36.514Z,42.67
2019-04-24T07:57:57.574Z,40.57
2019-04-24T08:00:32.799Z,42.97
2019-04-24T08:03:01.986Z,39.77
2019-04-24T08:05:31.736Z,40.97
2019-04-24T08:13:24.203Z,41.37
2019-04-24T08:16:09.200Z,39.27
2019-04-24T08:18:25.171Z,41.10
2019-04-24T08:21:01.511Z,39.67
2019-04-24T08:36:17.962Z,39.27
2019-04-24T08:39:27.044Z,37.10
2019-04-24T08:44:56.552Z,37.17
2019-04-24T08:47:12.178Z,35.67
2019-04-24T08:49:54.979Z,35.47
2019-04-24T08:52:44.769Z,38.50
2019-04-24T09:02:55.029Z,31.37
2019-04-24T09:05:11.735Z,31.00
2019-04-24T09:18:27.155Z,31.93
2019-04-24T09:20:55.863Z,29.50
2019-04-24T09:23:47.047Z,29.47
2019-04-24T09:26:42.523Z,30.03
2019-04-24T09:28:58.337Z,28.90
2019-04-24T09:33:56.535Z,25.63
2019-04-24T09:36:55.679Z,24.20
2019-04-24T09:39:18.572Z,25.60
2019-04-24T09:42:11.179Z,24.90
2019-04-24T09:44:03.946Z,22.47
2019-04-24T09:46:53.275Z,23.47
2019-04-24T09:49:01.953Z,24.50
2019-04-24T09:51:57.153Z,24.47
2019-04-24T10:02:33.315Z,23.50
2019-04-24T10:05:45.440Z,23.73
2019-04-24T10:07:57.416Z,23.23
2019-04-24T10:10:25.970Z,22.23
2019-04-24T10:13:02.796Z,23.23
2019-04-24T10:15:34.464Z,23.93
2019-04-24T10:18:08.816Z,23.67
2019-04-24T10:20:43.619Z,24.00
2019-04-24T10:23:46.310Z,23.40
2019-04-24T10:26:07.060Z,22.77
2019-04-24T10:29:23.896Z,24.80
2019-04-24T10:32:01.353Z,25.27
2019-04-24T10:34:20.960Z,25.10
2019-04-24T10:37:34.865Z,22.77
2019-04-24T10:46:24.899Z,23.37
2019-04-24T10:49:13.932Z,23.10
2019-04-24T10:54:40.599Z,21.50
2019-04-24T10:56:59.386Z,20.70
2019-04-24T10:59:45.383Z,20.93
2019-04-24T11:02:51.227Z,21.70
2019-04-24T11:10:54.057Z,21.90
2019-04-24T11:13:46.114Z,22.70
2019-04-24T11:16:35.693Z,21.27
2019-04-24T11:19:19.883Z,20.53
2019-04-24T11:21:54.896Z,20.60
2019-04-24T11:26:59.386Z,22.57
2019-04-24T11:29:42.876Z,20.90
2019-04-24T11:32:31.016Z,21.50
2019-04-24T11:35:22.208Z,20.33
2019-04-24T11:38:19.137Z,20.97
2019-04-24T11:40:55.533Z,21.00
2019-04-24T11:43:30.852Z,20.30
2019-04-24T11:46:24.870Z,20.30
2019-04-24T11:51:49.198Z,18.50
2019-04-24T11:54:02.163Z,13.83
2019-04-24T11:59:29.684Z,13.00
2019-04-24T12:08:06.774Z,13.03
2019-04-24T12:10:24.869Z,11.80
2019-04-24T12:16:38.902Z,12.40
2019-04-24T12:21:51.475Z,12.63
2019-04-24T12:24:07.064Z,12.60
2019-04-24T12:26:37.090Z,11.43
2019-04-24T12:31:54.713Z,15.50
2019-04-24T12:34:36.364Z,11.87
2019-04-24T12:37:03.105Z,11.80
2019-04-24T12:39:39.152Z,12.30
2019-04-24T12:41:53.492Z,11.80
2019-04-24T12:44:45.075Z,11.63
2019-04-24T12:49:55.391Z,10.50
2019-04-24T12:52:13.868Z,9.20
2019-04-24T12:55:14.783Z,8.60
2019-04-24T13:05:57.655Z,10.20
2019-04-24T13:11:28.765Z,9.77
2019-04-24T13:14:11.720Z,8.90
2019-04-24T13:17:06.359Z,10.00
2019-04-24T13:19:20.224Z,9.30
2019-04-24T13:21:31.759Z,8.70
2019-04-24T13:24:09.076Z,9.10
2019-04-24T13:27:12.619Z,10.20
2019-04-24T13:29:49.208Z,10.03
2019-04-24T13:32:26.624Z,8.63
2019-04-24T13:38:08.378Z,8.70
2019-04-24T13:40:28.074Z,9.67
2019-04-24T13:42:58.571Z,8.73
2019-04-24T13:48:07.144Z,10.10
2019-04-24T13:50:36.160Z,9.80
2019-04-24T13:55:29.016Z,8.90
2019-04-24T13:58:01.965Z,9.17
2019-04-24T14:00:33.644Z,9.50
2019-04-24T14:03:17.297Z,9.87
2019-04-24T14:05:25.540Z,9.70
2019-04-24T14:08:11.841Z,10.27
2019-04-24T14:15:26.895Z,9.70
2019-04-24T14:18:03.824Z,9.73
2019-04-24T14:20:45.173Z,9.90
2019-04-24T14:23:33.751Z,10.50
2019-04-24T14:30:56.405Z,10.53
2019-04-24T14:35:55.115Z,10.60
2019-04-24T14:38:30.955Z,11.20
2019-04-24T14:51:03.522Z,11.47
2019-04-24T14:53:38.734Z,10.10
2019-04-24T14:56:06.189Z,10.37
2019-04-24T14:58:34.641Z,11.37
2019-04-24T15:01:09.835Z,11.30
2019-04-24T15:03:34.353Z,10.80
2019-04-24T15:06:19.867Z,10.97
2019-04-24T15:08:37.533Z,11.20
2019-04-24T15:11:04.383Z,11.63
2019-04-24T15:13:34.660Z,11.03
2019-04-24T15:16:30.588Z,11.07
2019-04-24T15:18:55.474Z,10.90
2019-04-24T15:21:07.312Z,11.33
2019-04-24T15:24:10.283Z,10.60
2019-04-24T15:28:45.290Z,11.60
2019-04-24T15:31:03.021Z,10.60
2019-04-24T15:33:46.361Z,11.60
2019-04-24T15:36:09.356Z,12.23
2019-04-24T15:38:46.474Z,11.50
2019-04-24T15:41:17.547Z,10.93
2019-04-24T15:43:29.622Z,12.17
2019-04-24T15:46:07.023Z,11.13
2019-04-24T15:48:45.244Z,11.33
2019-04-24T15:51:16.394Z,15.47
2019-04-24T15:53:05.867Z,11.50
2019-04-24T15:55:39.017Z,11.20
2019-04-24T15:58:13.932Z,10.50
2019-04-24T16:01:18.478Z,11.80
2019-04-24T16:03:38.565Z,10.60
2019-04-24T16:05:58.333Z,12.00
2019-04-24T16:08:26.778Z,11.83
2019-04-24T16:10:54.793Z,10.77
2019-04-24T16:13:29.184Z,10.83
2019-04-24T16:26:23.328Z,11.93
2019-04-24T16:28:54.479Z,11.43
2019-04-24T16:36:24.860Z,11.17
2019-04-24T16:38:58.054Z,11.20
2019-04-24T16:44:15.975Z,11.10
2019-04-24T16:49:11.741Z,11.40
2019-04-24T16:54:12.672Z,11.20
2019-04-24T16:59:02.903Z,10.90
2019-04-24T17:01:47.955Z,12.43
2019-04-24T17:04:19.600Z,11.40
2019-04-24T17:11:38.172Z,11.47
2019-04-24T17:14:27.426Z,13.33
2019-04-24T17:22:06.065Z,12.80
2019-04-24T17:24:39.156Z,13.63
2019-04-24T17:27:07.186Z,13.50
2019-04-24T17:32:11.974Z,11.93
2019-04-24T17:34:47.859Z,12.17
2019-04-24T17:36:35.459Z,13.97
2019-04-24T17:39:22.975Z,13.27
2019-04-24T17:41:56.475Z,12.57
2019-04-24T17:50:01.383Z,13.23
2019-04-24T17:52:40.372Z,12.40
2019-04-24T17:54:41.918Z,12.53
2019-04-24T17:59:19.179Z,12.50
2019-04-24T18:01:47.325Z,12.57
2019-04-24T18:04:15.326Z,11.80
2019-04-24T18:06:43.385Z,12.50
2019-04-24T18:09:12.709Z,12.93
2019-04-24T18:11:42.049Z,11.50
2019-04-24T18:14:11.085Z,12.40
2019-04-24T18:16:39.005Z,12.17
2019-04-24T18:19:07.018Z,13.17
2019-04-24T18:21:35.011Z,12.50
2019-04-24T18:24:03.284Z,11.73
2019-04-24T18:26:54.010Z,12.03
2019-04-24T18:29:21.919Z,12.37
2019-04-24T18:31:50.956Z,12.97
2019-04-24T18:34:21.050Z,11.80
2019-04-24T18:36:49.202Z,11.97
2019-04-24T18:39:17.181Z,11.70
2019-04-24T18:41:45.270Z,11.90
2019-04-24T18:44:13.341Z,12.60
2019-04-24T18:46:41.639Z,12.63
2019-04-24T18:49:10.991Z,11.83
2019-04-24T18:51:39.587Z,12.60
2019-04-24T18:54:07.661Z,12.93
2019-04-24T18:56:35.761Z,13.80
2019-04-24T18:59:03.785Z,12.63
2019-04-24T19:01:32.947Z,12.93
2019-04-24T19:04:02.325Z,12.90
2019-04-24T19:06:33.519Z,12.67
2019-04-24T19:09:01.041Z,12.40
2019-04-24T19:11:29.899Z,13.43
2019-04-24T19:13:57.993Z,13.43
2019-04-24T19:16:26.099Z,11.70
2019-04-24T19:18:54.341Z,13.40
2019-04-24T19:21:22.281Z,14.43
2019-04-24T19:23:51.821Z,11.73
2019-04-24T19:26:21.453Z,14.10
2019-04-24T19:28:49.640Z,12.63
2019-04-24T19:31:17.764Z,12.20
2019-04-24T19:33:45.813Z,12.60
2019-04-24T19:36:14.444Z,13.53
2019-04-24T19:38:43.790Z,13.27
2019-04-24T19:41:13.206Z,12.40
2019-04-24T19:43:42.131Z,12.57
2019-04-24T19:46:15.481Z,13.30
2019-04-24T19:48:41.853Z,13.27
2019-04-24T19:51:12.221Z,12.60
2019-04-24T19:53:43.383Z,13.40
2019-04-24T19:56:10.104Z,13.70
2019-04-24T19:58:38.381Z,13.50
2019-04-24T20:01:07.714Z,13.50
2019-04-24T20:03:36.245Z,13.53
2019-04-24T20:06:05.022Z,13.30
2019-04-24T20:08:33.969Z,13.83
2019-04-24T20:11:14.662Z,12.93
2019-04-24T20:13:43.339Z,13.20
2019-04-24T20:16:12.233Z,12.67
2019-04-24T20:18:42.061Z,13.87
2019-04-24T20:21:11.102Z,12.83
2019-04-24T20:23:40.110Z,13.20
2019-04-24T20:26:08.142Z,13.07
2019-04-24T20:28:36.361Z,12.07
2019-04-24T20:31:05.017Z,13.27
2019-04-24T20:33:33.063Z,13.53
2019-04-24T20:36:01.384Z,12.83
2019-04-24T20:38:31.955Z,13.00
2019-04-24T20:41:00.022Z,12.27
2019-04-24T20:43:31.946Z,11.77
2019-04-24T20:46:01.662Z,12.00
2019-04-24T20:48:32.342Z,12.87
2019-04-24T20:51:07.386Z,13.17
2019-04-24T20:53:40.285Z,13.47
2019-04-24T20:56:08.307Z,12.47
2019-04-24T20:58:36.422Z,12.83
2019-04-24T21:01:06.291Z,13.80
2019-04-24T21:03:34.864Z,13.60
2019-04-24T21:06:26.347Z,12.70
2019-04-24T21:09:03.690Z,12.33
2019-04-24T21:11:31.785Z,12.17
2019-04-24T21:14:01.426Z,12.40
2019-04-24T21:16:29.970Z,13.50
2019-04-24T21:18:58.966Z,12.77
2019-04-24T21:21:26.897Z,11.60
2019-04-24T21:23:56.609Z,14.80
2019-04-24T21:26:24.730Z,13.17
2019-04-24T21:28:52.735Z,13.13
2019-04-24T21:31:21.937Z,11.97
2019-04-24T21:33:50.051Z,12.93
2019-04-24T21:36:18.083Z,13.40
2019-04-24T21:38:46.092Z,13.37
2019-04-24T21:41:14.124Z,13.27
2019-04-24T21:43:42.243Z,13.10
2019-04-24T21:46:10.264Z,13.40
2019-04-24T21:48:38.401Z,13.00
2019-04-24T21:51:06.926Z,12.00
2019-04-24T21:53:35.909Z,13.23
2019-04-24T21:56:04.907Z,12.80
2019-04-24T21:58:34.034Z,12.67
2019-04-24T22:01:25.197Z,11.83
2019-04-24T22:04:21.650Z,12.80
2019-04-24T22:07:13.495Z,12.10
2019-04-24T22:09:42.650Z,12.87
2019-04-24T22:12:11.186Z,12.40
2019-04-24T22:14:39.325Z,12.20
2019-04-24T22:17:09.529Z,13.13
2019-04-24T22:19:37.761Z,12.60
2019-04-24T22:22:11.586Z,13.17
2019-04-24T22:25:04.854Z,12.50
2019-04-24T22:27:36.465Z,11.77
2019-04-24T22:30:09.118Z,12.27
2019-04-24T22:32:38.610Z,11.97
2019-04-24T22:35:29.410Z,11.70
2019-04-24T22:38:05.881Z,12.63
2019-04-24T22:40:50.150Z,11.90
2019-04-24T22:43:20.305Z,12.10
2019-04-24T22:45:48.235Z,11.60
2019-04-24T22:48:16.234Z,12.50
2019-04-24T22:50:44.310Z,13.23
2019-04-24T22:53:12.365Z,11.50
2019-04-24T22:55:41.783Z,12.10
2019-04-24T22:58:10.990Z,12.10
2019-04-24T23:00:39.622Z,12.83
2019-04-24T23:03:08.689Z,13.33
2019-04-24T23:05:37.303Z,14.10
2019-04-24T23:08:05.447Z,13.17
2019-04-24T23:10:38.722Z,13.40
2019-04-24T23:13:04.329Z,13.37
2019-04-24T23:15:35.102Z,12.87
2019-04-24T23:18:03.053Z,13.47
2019-04-24T23:20:39.691Z,12.37
2019-04-24T23:23:28.606Z,12.33
2019-04-24T23:26:16.674Z,12.50
2019-04-24T23:28:55.340Z,11.60
2019-04-24T23:31:48.455Z,11.77
2019-04-24T23:34:17.953Z,12.30
2019-04-24T23:36:45.907Z,12.57
2019-04-24T23:39:14.817Z,13.27
2019-04-24T23:41:42.844Z,13.00
2019-04-24T23:44:12.254Z,11.83
2019-04-24T23:46:42.849Z,12.20
2019-04-24T23:49:09.980Z,11.50
2019-04-24T23:51:37.936Z,13.37
2019-04-24T23:54:05.927Z,12.40
2019-04-24T23:56:34.014Z,13.33
2019-04-24T23:59:01.966Z,12.70
